TLPC/SLU METAR and TAF weather

Enter ICAO airport designator
Station Type Date Time Source
TLPC METAR 2022/01/23 12:00 UTC NOAA

TLPC 231200Z 09005KT 9999 FEW023 SCT038 25/21 Q1015 NOSIG


Station Type Date Time Source
TLPC Decoded METAR 2022/01/23 12:00 UTC NOAA

Vigie, Saint Lucia (TLPC) 14-01N 061-00W 2M
Jan 23, 2022 - 07:00 AM EST / 2022.01.23 1200 UTC
Wind: from the E (090 degrees) at 6 MPH (5 KT):0
Visibility: greater than 7 mile(s):0
Sky conditions: partly cloudy
Temperature: 77 F (25 C)
Dew Point: 69 F (21 C)
Relative Humidity: 78%
Pressure (altimeter): 29.97 in. Hg (1015 hPa)
ob: TLPC 231200Z 09005KT 9999 FEW023 SCT038 25/21 Q1015 NOSIG
cycle: 12

Station Type Date Time Source
TLPC TAF 2022/01/23 12:06 UTC NOAA

TAF TAF TLPC 231100Z 2312/2412 09009KT 9999 SCT025
TEMPO 2406/2412 5000 SHRA BKN015 BKN040

Example: see airport list